CheckWX is a tool to help pilots better visualize weather data.  It is not intended as a substitute for an official pre-flight weather briefing.

12:53:07 UTC

KBGF METAR
Winchester Municipal Airport
Winchester, Tennessee, USA
Current

13 mins ago

KBGF 171240Z AUTO 18004KT 10SM CLR 25/20 A3002 RMK A01
Observed
Jun-17 @ 12:40 UTC
Wind
  • 180° at 4 KTS
Visibility
10 SM
Flight Rules
VFR
Cloud Levels
  • Clear skies
Temperature
25°C / 77°F
Dewpoint
20°C / 68°F
Humidity
74%
Altimeter
30.02" Hg
Pressure
1016.62 hPa
Previous

33 mins ago

KBGF 171220Z AUTO 18004KT 10SM CLR 25/20 A3002 RMK A01
Observed
Jun-17 @ 12:20 UTC
Wind
  • 180° at 4 KTS
Visibility
10 SM
Flight Rules
VFR
Cloud Levels
  • Clear skies
Temperature
25°C / 77°F
Dewpoint
20°C / 68°F
Humidity
74%
Altimeter
30.02" Hg
Pressure
1016.62 hPa
Previous

53 mins ago

KBGF 171200Z AUTO 14004KT 10SM CLR 24/20 A3002 RMK A01
Observed
Jun-17 @ 12:00 UTC
Wind
  • 140° at 4 KTS
Visibility
10 SM
Flight Rules
VFR
Cloud Levels
  • Clear skies
Temperature
24°C / 75°F
Dewpoint
20°C / 68°F
Humidity
78%
Altimeter
30.02" Hg
Pressure
1016.62 hPa